Servinor Uno — EA8943 — position and weather

sailwx.info

Track history (hours):
 
Tides and Currents Weather Stations Pressure Air Temp Water Temp Dewpoint Dewpoint Depression Visibility Wind Speed Wind Dir Waves Ship Positions

Servinor Uno

Last reported at 2018-Jun-24 15:50 UTC. Time now 2018-Jun-24 20:10 UTC.
Position N 43°20' W 003°02'.

Length 18 m; draft 2.2 m.

Type: Other ship. MMSI: 224265930.

Date/timePositionNaut miles runAvg speedWind from/ knotsBaromVisibWave heightAir tempDewpointWater temp
2018-Jun-24 15:50N 43°20' W 003°02'0 0.0
2018-Jun-24 15:30N 43°20' W 003°02'0 0.0
2018-Jun-24 14:59N 43°20' W 003°02'0 0.0
2018-Jun-24 14:30N 43°20' W 003°02'0 0.0
2018-Jun-24 14:00N 43°20' W 003°02'0 0.0
2018-Jun-24 13:30N 43°20' W 003°02'1 1.5
2018-Jun-24 13:00N 43°21' W 003°02'0 0.0
2018-Jun-24 12:30N 43°21' W 003°02'0 0.0
2018-Jun-24 12:00N 43°21' W 003°02'1 1.5
2018-Jun-24 11:30N 43°20' W 003°02'0 0.0
2018-Jun-24 09:33N 43°20' W 003°02'0 0.0
2018-Jun-24 09:31N 43°20' W 003°02'0 0.0
2018-Jun-24 09:00N 43°20' W 003°02'0 0.9
2018-Jun-24 08:31N 43°20' W 003°02'0 0.0
2018-Jun-24 08:01N 43°20' W 003°02'0 0.0
2018-Jun-24 07:31N 43°20' W 003°02'0 0.8
2018-Jun-24 07:00N 43°20' W 003°02'0 0.3
2018-Jun-24 06:30N 43°20' W 003°02'0 0.0
2018-Jun-23 16:30N 43°20' W 003°02'0 0.0
2018-Jun-23 16:00N 43°20' W 003°02'0 0.0
2018-Jun-23 15:30N 43°20' W 003°02'0 0.0
2018-Jun-23 15:00N 43°20' W 003°02'0 0.0
2018-Jun-23 14:30N 43°20' W 003°02'0 0.0
2018-Jun-23 14:00N 43°20' W 003°02'2 4.4
2018-Jun-23 13:30N 43°21' W 003°04'0 0.1
2018-Jun-23 12:58N 43°22' W 003°04'0 0.0
2018-Jun-23 12:30N 43°22' W 003°04'1 2.3
2018-Jun-23 12:00N 43°21' W 003°03'0 0.0
2018-Jun-23 11:30N 43°21' W 003°03'0 0.0
2018-Jun-23 11:00N 43°21' W 003°03'0 0.0
2018-Jun-23 10:30N 43°21' W 003°03'0 0.0
2018-Jun-23 10:00N 43°21' W 003°03'0 0.0
2018-Jun-23 09:30N 43°21' W 003°03'0 0.0
2018-Jun-23 09:00N 43°21' W 003°03'0 0.0
2018-Jun-23 08:30N 43°21' W 003°03'0 0.0
2018-Jun-23 08:00N 43°21' W 003°03'0 0.0
2018-Jun-23 07:30N 43°21' W 003°03'0 0.0
2018-Jun-23 07:00N 43°21' W 003°03'0 0.0
2018-Jun-23 06:30N 43°21' W 003°03'1 0.2
2018-Jun-23 01:48N 43°20' W 003°02'0 0.0
2018-Jun-23 01:30N 43°20' W 003°02'1 1.6
2018-Jun-23 01:00N 43°21' W 003°02'3 5.7
2018-Jun-23 00:30N 43°22' W 003°05'0 0.0
2018-Jun-23 00:00N 43°22' W 003°05'0 0.0
2018-Jun-22 23:30N 43°22' W 003°05'0 0.0
2018-Jun-22 23:00N 43°22' W 003°05'0 0.0
2018-Jun-22 22:30N 43°22' W 003°05'0 0.0
2018-Jun-22 22:00N 43°22' W 003°05'0 0.0
2018-Jun-22 21:30N 43°22' W 003°05'0 0.0
2018-Jun-22 21:00N 43°22' W 003°05'0 0.0
2018-Jun-22 20:30N 43°22' W 003°05'2 3.1
2018-Jun-22 20:00N 43°22' W 003°03'2 4.3
2018-Jun-22 19:30N 43°20' W 003°02'0 0.0
2018-Jun-22 19:00N 43°20' W 003°02'0 0.0
2018-Jun-22 18:30N 43°20' W 003°02'0 0.0
2018-Jun-22 18:00N 43°20' W 003°02'0 0.0
2018-Jun-22 17:30N 43°20' W 003°02'0 0.0
2018-Jun-22 17:00N 43°20' W 003°02'1 2.8
2018-Jun-22 16:30N 43°21' W 003°03'1 1.0
2018-Jun-22 16:00N 43°21' W 003°03'0 0.0
2018-Jun-22 15:30N 43°21' W 003°03'0 0.0
2018-Jun-22 15:00N 43°21' W 003°03'0 0.0
2018-Jun-22 14:30N 43°21' W 003°03'0 0.0
2018-Jun-22 14:00N 43°21' W 003°03'0 0.0
2018-Jun-22 13:30N 43°21' W 003°03'0 0.0
2018-Jun-22 13:00N 43°21' W 003°03'0 0.0
2018-Jun-22 12:30N 43°21' W 003°03'1 1.6
2018-Jun-22 11:57N 43°21' W 003°03'0 0.0
2018-Jun-22 11:27N 43°21' W 003°03'0 0.0
2018-Jun-22 11:00N 43°21' W 003°03'0 0.0
2018-Jun-22 10:30N 43°21' W 003°03'0 0.0
2018-Jun-22 09:55N 43°21' W 003°03'0 0.0
2018-Jun-22 09:29N 43°21' W 003°03'0 0.0
2018-Jun-22 08:43N 43°21' W 003°03'0 0.0
2018-Jun-22 08:24N 43°21' W 003°03'0 0.0
2018-Jun-22 08:00N 43°21' W 003°03'0 0.3
2018-Jun-22 07:30N 43°21' W 003°03'2 3.5
2018-Jun-22 07:00N 43°20' W 003°02'0 0.0
2018-Jun-22 06:30N 43°20' W 003°02'0 0.0
2018-Jun-21 16:32N 43°20' W 003°02'0 0.7
2018-Jun-21 16:30N 43°20' W 003°02'3 6.2
2018-Jun-21 16:01N 43°22' W 003°05'0 0.6
2018-Jun-21 15:30N 43°22' W 003°05'0 0.0
2018-Jun-21 15:00N 43°22' W 003°05'0 0.0
2018-Jun-21 14:30N 43°22' W 003°05'2 4.1
2018-Jun-21 14:01N 43°22' W 003°03'2 0.1
2018-Jun-20 21:29N 43°20' W 003°02'3 6.1
2018-Jun-20 21:00N 43°22' W 003°05'1 1.3
2018-Jun-20 20:30N 43°22' W 003°06'2 3.2
2018-Jun-20 20:00N 43°21' W 003°04'0 0.0
2018-Jun-20 19:30N 43°21' W 003°04'0 0.0
2018-Jun-20 19:00N 43°21' W 003°04'0 0.0
2018-Jun-20 18:30N 43°21' W 003°04'0 0.0
2018-Jun-20 18:00N 43°21' W 003°04'0 0.0
2018-Jun-20 17:30N 43°21' W 003°04'0 0.0
2018-Jun-20 17:00N 43°21' W 003°04'0 0.1
2018-Jun-20 16:29N 43°21' W 003°04'2 3.8
2018-Jun-20 16:00N 43°20' W 003°02'0 0.0
2018-Jun-20 15:30N 43°20' W 003°02'0 0.0
2018-Jun-20 15:00N 43°20' W 003°02'0 0.5
2018-Jun-20 14:30N 43°20' W 003°02'1 1.9
2018-Jun-20 14:00N 43°21' W 003°03'0 0.0
2018-Jun-20 13:30N 43°21' W 003°03'0 0.0
2018-Jun-20 13:00N 43°21' W 003°03'0 0.0
2018-Jun-20 12:30N 43°21' W 003°03'1 1.2
2018-Jun-20 12:00N 43°21' W 003°02'1 0.0
2018-Jun-18 15:24N 43°20' W 003°02'3 6.8
2018-Jun-18 15:00N 43°22' W 003°04'1 2.7
2018-Jun-18 14:30N 43°22' W 003°06'0 0.0
2018-Jun-18 14:00N 43°22' W 003°06'0 0.0
2018-Jun-18 13:31N 43°22' W 003°06'0 0.0
2018-Jun-18 13:00N 43°22' W 003°06'0 0.0
2018-Jun-18 12:30N 43°22' W 003°06'0 0.2
2018-Jun-18 12:00N 43°22' W 003°06'0 0.6
2018-Jun-18 11:30N 43°22' W 003°06'0 0.9
2018-Jun-18 11:00N 43°22' W 003°06'2 3.7
2018-Jun-18 10:30N 43°22' W 003°04'2 4.6
2018-Jun-18 10:00N 43°20' W 003°02'0 0.0
2018-Jun-16 13:50N 43°20' W 003°02'0 0.0
2018-Jun-16 13:31N 43°20' W 003°02'0 0.0
2018-Jun-16 13:01N 43°20' W 003°02'0 0.0
2018-Jun-16 12:30N 43°20' W 003°02'0 0.0
2018-Jun-16 12:00N 43°20' W 003°02'0 0.0
2018-Jun-16 11:31N 43°20' W 003°02'0 0.0
2018-Jun-16 11:01N 43°20' W 003°02'0 0.0
2018-Jun-16 10:30N 43°20' W 003°02'0 0.0
2018-Jun-16 10:01N 43°20' W 003°02'0 0.0
2018-Jun-16 09:31N 43°20' W 003°02'2 4.7
2018-Jun-16 09:00N 43°22' W 003°04'1 1.9
2018-Jun-16 08:31N 43°22' W 003°05'2 3.9
2018-Jun-16 08:01N 43°21' W 003°03'0 0.0
2018-Jun-16 07:30N 43°21' W 003°03'0 0.0
2018-Jun-16 07:00N 43°21' W 003°03'0 0.0
2018-Jun-16 06:30N 43°21' W 003°03'1 2.2
2018-Jun-16 06:01N 43°20' W 003°02'0 0.0
2018-Jun-15 21:00N 43°20' W 003°02'1 2.1
2018-Jun-15 20:30N 43°21' W 003°03'0 0.0
2018-Jun-15 20:00N 43°21' W 003°03'0 0.0
2018-Jun-15 19:30N 43°21' W 003°03'0 0.0
2018-Jun-15 19:00N 43°21' W 003°03'0 0.7
2018-Jun-15 18:30N 43°21' W 003°03'1 2.7
2018-Jun-15 18:00N 43°20' W 003°02'0 0.0
2018-Jun-15 12:38N 43°20' W 003°02'0 0.0
2018-Jun-15 12:30N 43°20' W 003°02'0 0.0
2018-Jun-15 12:00N 43°20' W 003°02'0 0.0
2018-Jun-15 11:30N 43°20' W 003°02'0 0.0
2018-Jun-15 11:00N 43°20' W 003°02'0 0.0
2018-Jun-15 10:30N 43°20' W 003°02'0 0.0
2018-Jun-15 10:00N 43°20' W 003°02'0 0.0
2018-Jun-15 09:30N 43°20' W 003°02'0 0.0
2018-Jun-15 09:00N 43°20' W 003°02'0 0.0
2018-Jun-15 08:30N 43°20' W 003°02'0 0.0
2018-Jun-15 08:00N 43°20' W 003°02'0 0.0
2018-Jun-15 07:30N 43°20' W 003°02'0 0.0
2018-Jun-15 06:59N 43°20' W 003°02'0 0.2
2018-Jun-15 06:30N 43°20' W 003°02'  
Track history (hours):
 
Tides and Currents Weather Stations Pressure Air Temp Water Temp Dewpoint Dewpoint Depression Visibility Wind Speed Wind Dir Waves Ship Positions

Servinor Uno

Last reported at 2018-Jun-24 15:50 UTC. Time now 2018-Jun-24 20:10 UTC.
Position N 43°20' W 003°02'.

Length 18 m; draft 2.2 m.

Type: Other ship. MMSI: 224265930.

Date/timePositionNaut miles runAvg speedWind from/ knotsBaromVisibWave heightAir tempDewpointWater temp
2018-Jun-24 15:50N 43°20' W 003°02'0 0.0
2018-Jun-24 15:30N 43°20' W 003°02'0 0.0
2018-Jun-24 14:59N 43°20' W 003°02'0 0.0
2018-Jun-24 14:30N 43°20' W 003°02'0 0.0
2018-Jun-24 14:00N 43°20' W 003°02'0 0.0
2018-Jun-24 13:30N 43°20' W 003°02'1 1.5
2018-Jun-24 13:00N 43°21' W 003°02'0 0.0
2018-Jun-24 12:30N 43°21' W 003°02'0 0.0
2018-Jun-24 12:00N 43°21' W 003°02'1 1.5
2018-Jun-24 11:30N 43°20' W 003°02'0 0.0
2018-Jun-24 09:33N 43°20' W 003°02'0 0.0
2018-Jun-24 09:31N 43°20' W 003°02'0 0.0
2018-Jun-24 09:00N 43°20' W 003°02'0 0.9
2018-Jun-24 08:31N 43°20' W 003°02'0 0.0
2018-Jun-24 08:01N 43°20' W 003°02'0 0.0
2018-Jun-24 07:31N 43°20' W 003°02'0 0.8
2018-Jun-24 07:00N 43°20' W 003°02'0 0.3
2018-Jun-24 06:30N 43°20' W 003°02'0 0.0
2018-Jun-23 16:30N 43°20' W 003°02'0 0.0
2018-Jun-23 16:00N 43°20' W 003°02'0 0.0
2018-Jun-23 15:30N 43°20' W 003°02'0 0.0
2018-Jun-23 15:00N 43°20' W 003°02'0 0.0
2018-Jun-23 14:30N 43°20' W 003°02'0 0.0
2018-Jun-23 14:00N 43°20' W 003°02'2 4.4
2018-Jun-23 13:30N 43°21' W 003°04'0 0.1
2018-Jun-23 12:58N 43°22' W 003°04'0 0.0
2018-Jun-23 12:30N 43°22' W 003°04'1 2.3
2018-Jun-23 12:00N 43°21' W 003°03'0 0.0
2018-Jun-23 11:30N 43°21' W 003°03'0 0.0
2018-Jun-23 11:00N 43°21' W 003°03'0 0.0
2018-Jun-23 10:30N 43°21' W 003°03'0 0.0
2018-Jun-23 10:00N 43°21' W 003°03'0 0.0
2018-Jun-23 09:30N 43°21' W 003°03'0 0.0
2018-Jun-23 09:00N 43°21' W 003°03'0 0.0
2018-Jun-23 08:30N 43°21' W 003°03'0 0.0
2018-Jun-23 08:00N 43°21' W 003°03'0 0.0
2018-Jun-23 07:30N 43°21' W 003°03'0 0.0
2018-Jun-23 07:00N 43°21' W 003°03'0 0.0
2018-Jun-23 06:30N 43°21' W 003°03'1 0.2
2018-Jun-23 01:48N 43°20' W 003°02'0 0.0
2018-Jun-23 01:30N 43°20' W 003°02'1 1.6
2018-Jun-23 01:00N 43°21' W 003°02'3 5.7
2018-Jun-23 00:30N 43°22' W 003°05'0 0.0
2018-Jun-23 00:00N 43°22' W 003°05'0 0.0
2018-Jun-22 23:30N 43°22' W 003°05'0 0.0
2018-Jun-22 23:00N 43°22' W 003°05'0 0.0
2018-Jun-22 22:30N 43°22' W 003°05'0 0.0
2018-Jun-22 22:00N 43°22' W 003°05'0 0.0
2018-Jun-22 21:30N 43°22' W 003°05'0 0.0
2018-Jun-22 21:00N 43°22' W 003°05'0 0.0
2018-Jun-22 20:30N 43°22' W 003°05'2 3.1
2018-Jun-22 20:00N 43°22' W 003°03'2 4.3
2018-Jun-22 19:30N 43°20' W 003°02'0 0.0
2018-Jun-22 19:00N 43°20' W 003°02'0 0.0
2018-Jun-22 18:30N 43°20' W 003°02'0 0.0
2018-Jun-22 18:00N 43°20' W 003°02'0 0.0
2018-Jun-22 17:30N 43°20' W 003°02'0 0.0
2018-Jun-22 17:00N 43°20' W 003°02'1 2.8
2018-Jun-22 16:30N 43°21' W 003°03'1 1.0
2018-Jun-22 16:00N 43°21' W 003°03'0 0.0
2018-Jun-22 15:30N 43°21' W 003°03'0 0.0
2018-Jun-22 15:00N 43°21' W 003°03'0 0.0
2018-Jun-22 14:30N 43°21' W 003°03'0 0.0
2018-Jun-22 14:00N 43°21' W 003°03'0 0.0
2018-Jun-22 13:30N 43°21' W 003°03'0 0.0
2018-Jun-22 13:00N 43°21' W 003°03'0 0.0
2018-Jun-22 12:30N 43°21' W 003°03'1 1.6
2018-Jun-22 11:57N 43°21' W 003°03'0 0.0
2018-Jun-22 11:27N 43°21' W 003°03'0 0.0
2018-Jun-22 11:00N 43°21' W 003°03'0 0.0
2018-Jun-22 10:30N 43°21' W 003°03'0 0.0
2018-Jun-22 09:55N 43°21' W 003°03'0 0.0
2018-Jun-22 09:29N 43°21' W 003°03'0 0.0
2018-Jun-22 08:43N 43°21' W 003°03'0 0.0
2018-Jun-22 08:24N 43°21' W 003°03'0 0.0
2018-Jun-22 08:00N 43°21' W 003°03'0 0.3
2018-Jun-22 07:30N 43°21' W 003°03'2 3.5
2018-Jun-22 07:00N 43°20' W 003°02'0 0.0
2018-Jun-22 06:30N 43°20' W 003°02'0 0.0
2018-Jun-21 16:32N 43°20' W 003°02'0 0.7
2018-Jun-21 16:30N 43°20' W 003°02'3 6.2
2018-Jun-21 16:01N 43°22' W 003°05'0 0.6
2018-Jun-21 15:30N 43°22' W 003°05'0 0.0
2018-Jun-21 15:00N 43°22' W 003°05'0 0.0
2018-Jun-21 14:30N 43°22' W 003°05'2 4.1
2018-Jun-21 14:01N 43°22' W 003°03'2 0.1
2018-Jun-20 21:29N 43°20' W 003°02'3 6.1
2018-Jun-20 21:00N 43°22' W 003°05'1 1.3
2018-Jun-20 20:30N 43°22' W 003°06'2 3.2
2018-Jun-20 20:00N 43°21' W 003°04'0 0.0
2018-Jun-20 19:30N 43°21' W 003°04'0 0.0
2018-Jun-20 19:00N 43°21' W 003°04'0 0.0
2018-Jun-20 18:30N 43°21' W 003°04'0 0.0
2018-Jun-20 18:00N 43°21' W 003°04'0 0.0
2018-Jun-20 17:30N 43°21' W 003°04'0 0.0
2018-Jun-20 17:00N 43°21' W 003°04'0 0.1
2018-Jun-20 16:29N 43°21' W 003°04'2 3.8
2018-Jun-20 16:00N 43°20' W 003°02'0 0.0
2018-Jun-20 15:30N 43°20' W 003°02'0 0.0
2018-Jun-20 15:00N 43°20' W 003°02'0 0.5
2018-Jun-20 14:30N 43°20' W 003°02'1 1.9
2018-Jun-20 14:00N 43°21' W 003°03'0 0.0
2018-Jun-20 13:30N 43°21' W 003°03'0 0.0
2018-Jun-20 13:00N 43°21' W 003°03'0 0.0
2018-Jun-20 12:30N 43°21' W 003°03'1 1.2
2018-Jun-20 12:00N 43°21' W 003°02'1 0.0
2018-Jun-18 15:24N 43°20' W 003°02'3 6.8
2018-Jun-18 15:00N 43°22' W 003°04'1 2.7
2018-Jun-18 14:30N 43°22' W 003°06'0 0.0
2018-Jun-18 14:00N 43°22' W 003°06'0 0.0
2018-Jun-18 13:31N 43°22' W 003°06'0 0.0
2018-Jun-18 13:00N 43°22' W 003°06'0 0.0
2018-Jun-18 12:30N 43°22' W 003°06'0 0.2
2018-Jun-18 12:00N 43°22' W 003°06'0 0.6
2018-Jun-18 11:30N 43°22' W 003°06'0 0.9
2018-Jun-18 11:00N 43°22' W 003°06'2 3.7
2018-Jun-18 10:30N 43°22' W 003°04'2 4.6
2018-Jun-18 10:00N 43°20' W 003°02'0 0.0
2018-Jun-16 13:50N 43°20' W 003°02'0 0.0
2018-Jun-16 13:31N 43°20' W 003°02'0 0.0
2018-Jun-16 13:01N 43°20' W 003°02'0 0.0
2018-Jun-16 12:30N 43°20' W 003°02'0 0.0
2018-Jun-16 12:00N 43°20' W 003°02'0 0.0
2018-Jun-16 11:31N 43°20' W 003°02'0 0.0
2018-Jun-16 11:01N 43°20' W 003°02'0 0.0
2018-Jun-16 10:30N 43°20' W 003°02'0 0.0
2018-Jun-16 10:01N 43°20' W 003°02'0 0.0
2018-Jun-16 09:31N 43°20' W 003°02'2 4.7
2018-Jun-16 09:00N 43°22' W 003°04'1 1.9
2018-Jun-16 08:31N 43°22' W 003°05'2 3.9
2018-Jun-16 08:01N 43°21' W 003°03'0 0.0
2018-Jun-16 07:30N 43°21' W 003°03'0 0.0
2018-Jun-16 07:00N 43°21' W 003°03'0 0.0
2018-Jun-16 06:30N 43°21' W 003°03'1 2.2
2018-Jun-16 06:01N 43°20' W 003°02'0 0.0
2018-Jun-15 21:00N 43°20' W 003°02'1 2.1
2018-Jun-15 20:30N 43°21' W 003°03'0 0.0
2018-Jun-15 20:00N 43°21' W 003°03'0 0.0
2018-Jun-15 19:30N 43°21' W 003°03'0 0.0
2018-Jun-15 19:00N 43°21' W 003°03'0 0.7
2018-Jun-15 18:30N 43°21' W 003°03'1 2.7
2018-Jun-15 18:00N 43°20' W 003°02'0 0.0
2018-Jun-15 12:38N 43°20' W 003°02'0 0.0
2018-Jun-15 12:30N 43°20' W 003°02'0 0.0
2018-Jun-15 12:00N 43°20' W 003°02'0 0.0
2018-Jun-15 11:30N 43°20' W 003°02'0 0.0
2018-Jun-15 11:00N 43°20' W 003°02'0 0.0
2018-Jun-15 10:30N 43°20' W 003°02'0 0.0
2018-Jun-15 10:00N 43°20' W 003°02'0 0.0
2018-Jun-15 09:30N 43°20' W 003°02'0 0.0
2018-Jun-15 09:00N 43°20' W 003°02'0 0.0
2018-Jun-15 08:30N 43°20' W 003°02'0 0.0
2018-Jun-15 08:00N 43°20' W 003°02'0 0.0
2018-Jun-15 07:30N 43°20' W 003°02'0 0.0
2018-Jun-15 06:59N 43°20' W 003°02'0 0.2
2018-Jun-15 06:30N 43°20' W 003°02'  

Dump ship's entire track history